Terminal Aerodrome Forecast
Issued by NWS

Current Version | Previous Version | Text Only | Print | Product List | Glossary Off
Versions: 1 2 3 4 5 6 7 8 9 10 11 12 13 14 15 16 17 18 19

000
FTUS41 KPBZ 172200 AAA
TAFHLG
TAF AMD
KHLG 172254Z 1723/1818 26010KT P6SM OVC022
     FM180300 28008KT P6SM OVC018
     FM181400 26006KT P6SM BKN025=

USA.gov is the U.S. government's official web portal to all federal, state and local government web resources and services.